METAR

Letisková meteorologická správa METAR

Meteorologické informácie z ďalších profesionálnych meteorologických staníc SHMÚ zobrazené v tvare zodpovedajúcom pravidlám kódovania správ METAR sú uvedené v položke „METSYN

Informácie o správe METAR

24.09.2017 - 06:00 UTC

METAR LZIB 240600Z 29004KT 9999 FEW008 SCT021 BKN062 12/10 Q1020
NOSIG=
METAR LZKZ 240600Z VRB01KT 3200 BR SCT001 BKN017 10/09 Q1020 NOSIG=
METAR LZPP 240600Z VRB01KT 9999 SCT007 OVC015 12/11 Q1020=
METAR LZSL 240600Z 00000KT 6000 FEW006 SCT013 BKN046 10/09 Q1020=
METAR LZTT 240600Z VRB02KT 4000 BR FEW003 SCT020 OVC050 09/08 Q1020
NOSIG=
METAR LZZI 240600Z 06002KT 8000 OVC007 11/10 Q1020=

24.09.2017 - 05:30 UTC

METAR LZIB 240530Z 28006KT 9999 FEW008 SCT022 BKN062 12/10 Q1020
NOSIG=
METAR LZKZ 240530Z 14004KT 070V150 8000 2800S BCFG FEW003 BKN017
10/09 Q1020 TEMPO 2000 BR=
METAR LZPP 240530Z 00000KT 9999 BKN015 OVC028 11/11 Q1019=
METAR LZSL 240530Z 00000KT 6000 FEW005 SCT023 BKN048 10/09 Q1020=
METAR LZTT 240530Z 00000KT 3500 BR SCT003 OVC010 09/08 Q1020 NOSIG=
METAR LZZI 240530Z 00000KT 9000 OVC008 11/10 Q1020=

24.09.2017 - 06:00 UTC

METAR LZMC 240600Z 19002KT 4000 -RA SCT004 OVC015 11/10
Q1020=
METAR LZPW 240600Z 08002KT 6000 SCT003 BKN015 11/10
Q1020=

skok na menu ↑


skok na začiatok stránky ↑